sensor_id;sensor_type;location;lat;lon;timestamp;P1;durP1;ratioP1;P2;durP2;ratioP2
14373;SDS011;7270;49.004;12.066;2023-07-13T00:00:23;1.10;;;1.10;;
14373;SDS011;7270;49.004;12.066;2023-07-13T00:02:51;0.97;;;0.97;;
14373;SDS011;7270;49.004;12.066;2023-07-13T00:05:18;1.10;;;1.10;;
14373;SDS011;7270;49.004;12.066;2023-07-13T00:07:44;1.00;;;1.00;;
14373;SDS011;7270;49.004;12.066;2023-07-13T00:10:11;1.10;;;1.10;;
14373;SDS011;7270;49.004;12.066;2023-07-13T00:12:38;1.10;;;1.10;;
14373;SDS011;7270;49.004;12.066;2023-07-13T00:15:06;1.17;;;1.17;;
14373;SDS011;7270;49.004;12.066;2023-07-13T00:17:33;1.20;;;1.20;;
14373;SDS011;7270;49.004;12.066;2023-07-13T00:20:01;1.00;;;1.00;;
14373;SDS011;7270;49.004;12.066;2023-07-13T00:22:29;1.10;;;1.10;;
14373;SDS011;7270;49.004;12.066;2023-07-13T00:24:55;1.00;;;1.00;;
14373;SDS011;7270;49.004;12.066;2023-07-13T00:27:21;1.10;;;1.10;;
14373;SDS011;7270;49.004;12.066;2023-07-13T00:29:48;1.00;;;1.00;;
14373;SDS011;7270;49.004;12.066;2023-07-13T00:32:14;1.00;;;1.00;;
14373;SDS011;7270;49.004;12.066;2023-07-13T00:34:40;1.00;;;1.00;;
14373;SDS011;7270;49.004;12.066;2023-07-13T00:37:08;1.23;;;1.20;;
14373;SDS011;7270;49.004;12.066;2023-07-13T00:39:34;0.90;;;0.90;;
14373;SDS011;7270;49.004;12.066;2023-07-13T00:42:01;1.00;;;1.00;;
14373;SDS011;7270;49.004;12.066;2023-07-13T00:44:28;1.10;;;1.10;;
14373;SDS011;7270;49.004;12.066;2023-07-13T00:46:54;1.00;;;1.00;;
14373;SDS011;7270;49.004;12.066;2023-07-13T00:49:21;1.00;;;1.00;;
14373;SDS011;7270;49.004;12.066;2023-07-13T00:51:49;0.90;;;0.90;;
14373;SDS011;7270;49.004;12.066;2023-07-13T00:54:19;1.10;;;1.10;;
14373;SDS011;7270;49.004;12.066;2023-07-13T00:56:47;1.00;;;1.00;;
14373;SDS011;7270;49.004;12.066;2023-07-13T00:59:14;1.00;;;1.00;;
14373;SDS011;7270;49.004;12.066;2023-07-13T01:01:41;1.17;;;1.17;;
14373;SDS011;7270;49.004;12.066;2023-07-13T01:04:07;1.20;;;1.20;;
14373;SDS011;7270;49.004;12.066;2023-07-13T01:06:34;1.10;;;1.10;;
14373;SDS011;7270;49.004;12.066;2023-07-13T01:09:00;1.10;;;1.10;;
14373;SDS011;7270;49.004;12.066;2023-07-13T01:11:28;1.00;;;1.00;;
14373;SDS011;7270;49.004;12.066;2023-07-13T01:13:54;1.10;;;1.10;;
14373;SDS011;7270;49.004;12.066;2023-07-13T01:16:22;1.00;;;1.00;;
14373;SDS011;7270;49.004;12.066;2023-07-13T01:18:49;1.20;;;1.20;;
14373;SDS011;7270;49.004;12.066;2023-07-13T01:21:17;1.07;;;1.07;;
14373;SDS011;7270;49.004;12.066;2023-07-13T01:23:44;1.20;;;1.20;;
14373;SDS011;7270;49.004;12.066;2023-07-13T01:26:11;1.10;;;1.10;;
14373;SDS011;7270;49.004;12.066;2023-07-13T01:28:37;1.00;;;1.00;;
14373;SDS011;7270;49.004;12.066;2023-07-13T01:31:04;1.00;;;1.00;;
14373;SDS011;7270;49.004;12.066;2023-07-13T01:33:30;1.20;;;1.20;;
14373;SDS011;7270;49.004;12.066;2023-07-13T01:35:56;1.10;;;1.10;;
14373;SDS011;7270;49.004;12.066;2023-07-13T01:38:24;1.10;;;1.10;;
14373;SDS011;7270;49.004;12.066;2023-07-13T01:40:51;1.10;;;1.10;;
14373;SDS011;7270;49.004;12.066;2023-07-13T01:43:17;1.10;;;1.10;;
14373;SDS011;7270;49.004;12.066;2023-07-13T01:45:44;1.00;;;1.00;;
14373;SDS011;7270;49.004;12.066;2023-07-13T01:48:10;1.00;;;1.00;;
14373;SDS011;7270;49.004;12.066;2023-07-13T01:50:37;1.10;;;1.10;;
14373;SDS011;7270;49.004;12.066;2023-07-13T01:53:03;1.20;;;1.20;;
14373;SDS011;7270;49.004;12.066;2023-07-13T01:55:31;1.07;;;1.07;;
14373;SDS011;7270;49.004;12.066;2023-07-13T01:57:57;1.10;;;1.10;;
14373;SDS011;7270;49.004;12.066;2023-07-13T02:00:24;1.10;;;1.10;;
14373;SDS011;7270;49.004;12.066;2023-07-13T02:02:50;1.00;;;1.00;;
14373;SDS011;7270;49.004;12.066;2023-07-13T02:05:17;1.00;;;1.00;;
14373;SDS011;7270;49.004;12.066;2023-07-13T02:07:43;1.00;;;1.00;;
14373;SDS011;7270;49.004;12.066;2023-07-13T02:10:10;1.00;;;1.00;;
14373;SDS011;7270;49.004;12.066;2023-07-13T02:12:37;1.00;;;1.00;;
14373;SDS011;7270;49.004;12.066;2023-07-13T02:15:04;1.10;;;1.10;;
14373;SDS011;7270;49.004;12.066;2023-07-13T02:17:31;1.10;;;1.10;;
14373;SDS011;7270;49.004;12.066;2023-07-13T02:19:57;1.20;;;1.20;;
14373;SDS011;7270;49.004;12.066;2023-07-13T02:22:23;1.00;;;1.00;;
14373;SDS011;7270;49.004;12.066;2023-07-13T02:24:50;1.10;;;1.10;;
14373;SDS011;7270;49.004;12.066;2023-07-13T02:27:16;0.90;;;0.90;;
14373;SDS011;7270;49.004;12.066;2023-07-13T02:29:44;1.10;;;1.10;;
14373;SDS011;7270;49.004;12.066;2023-07-13T02:32:10;1.00;;;1.00;;
14373;SDS011;7270;49.004;12.066;2023-07-13T02:34:36;0.90;;;0.90;;
14373;SDS011;7270;49.004;12.066;2023-07-13T02:37:03;0.90;;;0.90;;
14373;SDS011;7270;49.004;12.066;2023-07-13T02:39:29;1.10;;;1.10;;
14373;SDS011;7270;49.004;12.066;2023-07-13T02:41:57;1.00;;;1.00;;
14373;SDS011;7270;49.004;12.066;2023-07-13T02:44:24;1.00;;;1.00;;
14373;SDS011;7270;49.004;12.066;2023-07-13T02:46:51;1.20;;;1.20;;
14373;SDS011;7270;49.004;12.066;2023-07-13T02:49:18;1.00;;;1.00;;
14373;SDS011;7270;49.004;12.066;2023-07-13T02:51:44;1.00;;;1.00;;
14373;SDS011;7270;49.004;12.066;2023-07-13T02:54:10;1.10;;;1.10;;
14373;SDS011;7270;49.004;12.066;2023-07-13T02:56:38;0.90;;;0.90;;
14373;SDS011;7270;49.004;12.066;2023-07-13T02:59:04;1.10;;;1.10;;
14373;SDS011;7270;49.004;12.066;2023-07-13T03:01:31;1.10;;;1.10;;
14373;SDS011;7270;49.004;12.066;2023-07-13T03:03:59;1.10;;;1.10;;
14373;SDS011;7270;49.004;12.066;2023-07-13T03:06:25;1.10;;;1.10;;
14373;SDS011;7270;49.004;12.066;2023-07-13T03:08:55;1.00;;;1.00;;
14373;SDS011;7270;49.004;12.066;2023-07-13T03:11:22;1.10;;;1.10;;
14373;SDS011;7270;49.004;12.066;2023-07-13T03:13:48;1.10;;;1.10;;
14373;SDS011;7270;49.004;12.066;2023-07-13T03:16:16;1.10;;;1.10;;
14373;SDS011;7270;49.004;12.066;2023-07-13T03:18:42;1.10;;;1.10;;
14373;SDS011;7270;49.004;12.066;2023-07-13T03:21:10;1.10;;;1.10;;
14373;SDS011;7270;49.004;12.066;2023-07-13T03:23:36;1.10;;;1.10;;
14373;SDS011;7270;49.004;12.066;2023-07-13T03:26:04;1.00;;;1.00;;
14373;SDS011;7270;49.004;12.066;2023-07-13T03:28:30;1.00;;;1.00;;
14373;SDS011;7270;49.004;12.066;2023-07-13T03:31:00;1.10;;;1.10;;
14373;SDS011;7270;49.004;12.066;2023-07-13T03:33:26;1.10;;;1.10;;
14373;SDS011;7270;49.004;12.066;2023-07-13T03:35:53;1.10;;;1.10;;
14373;SDS011;7270;49.004;12.066;2023-07-13T03:38:20;1.10;;;1.10;;
14373;SDS011;7270;49.004;12.066;2023-07-13T03:40:47;0.90;;;0.90;;
14373;SDS011;7270;49.004;12.066;2023-07-13T03:43:13;1.00;;;1.00;;
14373;SDS011;7270;49.004;12.066;2023-07-13T03:45:40;1.10;;;1.10;;
14373;SDS011;7270;49.004;12.066;2023-07-13T03:48:06;1.10;;;1.10;;
14373;SDS011;7270;49.004;12.066;2023-07-13T03:50:32;1.10;;;1.10;;
14373;SDS011;7270;49.004;12.066;2023-07-13T03:52:59;1.00;;;1.00;;
14373;SDS011;7270;49.004;12.066;2023-07-13T03:55:27;1.10;;;1.10;;
14373;SDS011;7270;49.004;12.066;2023-07-13T03:57:54;1.10;;;1.10;;
14373;SDS011;7270;49.004;12.066;2023-07-13T04:00:23;1.07;;;1.07;;
14373;SDS011;7270;49.004;12.066;2023-07-13T04:02:50;1.10;;;1.10;;
14373;SDS011;7270;49.004;12.066;2023-07-13T04:05:16;1.10;;;1.10;;
14373;SDS011;7270;49.004;12.066;2023-07-13T04:07:42;1.10;;;1.10;;
14373;SDS011;7270;49.004;12.066;2023-07-13T04:10:09;1.20;;;1.20;;
14373;SDS011;7270;49.004;12.066;2023-07-13T04:12:36;1.10;;;1.10;;
14373;SDS011;7270;49.004;12.066;2023-07-13T04:15:03;1.20;;;1.20;;
14373;SDS011;7270;49.004;12.066;2023-07-13T04:17:30;1.10;;;1.10;;
14373;SDS011;7270;49.004;12.066;2023-07-13T04:19:56;1.10;;;1.10;;
14373;SDS011;7270;49.004;12.066;2023-07-13T04:22:22;1.20;;;1.20;;
14373;SDS011;7270;49.004;12.066;2023-07-13T04:24:48;1.00;;;1.00;;
14373;SDS011;7270;49.004;12.066;2023-07-13T04:27:15;0.90;;;0.90;;
14373;SDS011;7270;49.004;12.066;2023-07-13T04:29:45;1.00;;;1.00;;
14373;SDS011;7270;49.004;12.066;2023-07-13T04:32:11;1.10;;;1.10;;
14373;SDS011;7270;49.004;12.066;2023-07-13T04:34:37;1.10;;;1.10;;
14373;SDS011;7270;49.004;12.066;2023-07-13T04:37:04;1.00;;;1.00;;
14373;SDS011;7270;49.004;12.066;2023-07-13T04:39:30;0.93;;;0.93;;
14373;SDS011;7270;49.004;12.066;2023-07-13T04:41:56;1.23;;;1.20;;
14373;SDS011;7270;49.004;12.066;2023-07-13T04:44:23;1.10;;;1.10;;
14373;SDS011;7270;49.004;12.066;2023-07-13T04:46:50;1.00;;;1.00;;
14373;SDS011;7270;49.004;12.066;2023-07-13T04:49:17;1.20;;;1.20;;
14373;SDS011;7270;49.004;12.066;2023-07-13T04:51:43;1.10;;;1.10;;
14373;SDS011;7270;49.004;12.066;2023-07-13T04:54:09;1.00;;;1.00;;
14373;SDS011;7270;49.004;12.066;2023-07-13T04:56:36;1.10;;;1.10;;
14373;SDS011;7270;49.004;12.066;2023-07-13T04:59:02;1.00;;;1.00;;
14373;SDS011;7270;49.004;12.066;2023-07-13T05:01:28;1.10;;;1.10;;
14373;SDS011;7270;49.004;12.066;2023-07-13T05:03:56;1.00;;;1.00;;
14373;SDS011;7270;49.004;12.066;2023-07-13T05:06:24;0.90;;;0.90;;
14373;SDS011;7270;49.004;12.066;2023-07-13T05:08:50;0.90;;;0.90;;
14373;SDS011;7270;49.004;12.066;2023-07-13T05:11:17;1.10;;;1.10;;
14373;SDS011;7270;49.004;12.066;2023-07-13T05:13:44;1.13;;;1.10;;
14373;SDS011;7270;49.004;12.066;2023-07-13T05:16:10;1.10;;;1.10;;
14373;SDS011;7270;49.004;12.066;2023-07-13T05:18:37;0.93;;;0.93;;
14373;SDS011;7270;49.004;12.066;2023-07-13T05:21:06;1.30;;;1.20;;
14373;SDS011;7270;49.004;12.066;2023-07-13T05:23:33;1.17;;;1.17;;
14373;SDS011;7270;49.004;12.066;2023-07-13T05:25:59;1.23;;;1.20;;
14373;SDS011;7270;49.004;12.066;2023-07-13T05:28:26;1.00;;;1.00;;
14373;SDS011;7270;49.004;12.066;2023-07-13T05:30:53;1.30;;;1.20;;
14373;SDS011;7270;49.004;12.066;2023-07-13T05:33:20;1.00;;;1.00;;
14373;SDS011;7270;49.004;12.066;2023-07-13T05:35:46;1.10;;;1.10;;
14373;SDS011;7270;49.004;12.066;2023-07-13T05:38:14;1.10;;;1.10;;
14373;SDS011;7270;49.004;12.066;2023-07-13T05:40:42;1.00;;;1.00;;
14373;SDS011;7270;49.004;12.066;2023-07-13T05:43:08;1.30;;;1.20;;
14373;SDS011;7270;49.004;12.066;2023-07-13T05:45:36;1.20;;;1.20;;
14373;SDS011;7270;49.004;12.066;2023-07-13T05:48:02;1.40;;;1.30;;
14373;SDS011;7270;49.004;12.066;2023-07-13T05:50:28;1.20;;;1.20;;
14373;SDS011;7270;49.004;12.066;2023-07-13T05:52:55;1.10;;;1.10;;
14373;SDS011;7270;49.004;12.066;2023-07-13T05:55:22;1.20;;;1.20;;
14373;SDS011;7270;49.004;12.066;2023-07-13T05:57:49;1.20;;;1.20;;
14373;SDS011;7270;49.004;12.066;2023-07-13T06:00:16;1.10;;;1.10;;
14373;SDS011;7270;49.004;12.066;2023-07-13T06:02:43;1.40;;;1.30;;
14373;SDS011;7270;49.004;12.066;2023-07-13T06:05:10;1.10;;;1.10;;
14373;SDS011;7270;49.004;12.066;2023-07-13T06:07:37;1.20;;;1.20;;
14373;SDS011;7270;49.004;12.066;2023-07-13T06:10:05;1.30;;;1.20;;
14373;SDS011;7270;49.004;12.066;2023-07-13T06:12:33;1.40;;;1.30;;
14373;SDS011;7270;49.004;12.066;2023-07-13T06:15:00;1.10;;;1.10;;
14373;SDS011;7270;49.004;12.066;2023-07-13T06:17:26;1.40;;;1.30;;
14373;SDS011;7270;49.004;12.066;2023-07-13T06:19:53;1.20;;;1.20;;
14373;SDS011;7270;49.004;12.066;2023-07-13T06:22:19;1.20;;;1.20;;
14373;SDS011;7270;49.004;12.066;2023-07-13T06:24:45;1.20;;;1.20;;
14373;SDS011;7270;49.004;12.066;2023-07-13T06:27:12;1.30;;;1.20;;
14373;SDS011;7270;49.004;12.066;2023-07-13T06:29:39;1.20;;;1.20;;
14373;SDS011;7270;49.004;12.066;2023-07-13T06:32:06;1.30;;;1.20;;
14373;SDS011;7270;49.004;12.066;2023-07-13T06:34:33;1.20;;;1.20;;
14373;SDS011;7270;49.004;12.066;2023-07-13T06:36:59;1.10;;;1.10;;
14373;SDS011;7270;49.004;12.066;2023-07-13T06:39:25;1.33;;;1.27;;
14373;SDS011;7270;49.004;12.066;2023-07-13T06:41:52;1.20;;;1.20;;
14373;SDS011;7270;49.004;12.066;2023-07-13T06:44:18;1.40;;;1.30;;
14373;SDS011;7270;49.004;12.066;2023-07-13T06:46:48;1.40;;;1.30;;
14373;SDS011;7270;49.004;12.066;2023-07-13T06:49:15;1.30;;;1.20;;
14373;SDS011;7270;49.004;12.066;2023-07-13T06:51:42;1.23;;;1.20;;
14373;SDS011;7270;49.004;12.066;2023-07-13T06:54:08;1.23;;;1.20;;
14373;SDS011;7270;49.004;12.066;2023-07-13T06:56:44;1.10;;;1.10;;
14373;SDS011;7270;49.004;12.066;2023-07-13T06:59:11;1.20;;;1.20;;
14373;SDS011;7270;49.004;12.066;2023-07-13T07:01:37;1.30;;;1.20;;
14373;SDS011;7270;49.004;12.066;2023-07-13T07:04:05;1.10;;;1.10;;
14373;SDS011;7270;49.004;12.066;2023-07-13T07:06:31;1.40;;;1.30;;
14373;SDS011;7270;49.004;12.066;2023-07-13T07:08:58;1.30;;;1.20;;
14373;SDS011;7270;49.004;12.066;2023-07-13T07:11:25;1.60;;;1.50;;
14373;SDS011;7270;49.004;12.066;2023-07-13T07:13:51;1.80;;;1.70;;
14373;SDS011;7270;49.004;12.066;2023-07-13T07:16:18;1.60;;;1.50;;
14373;SDS011;7270;49.004;12.066;2023-07-13T07:18:45;1.40;;;1.30;;
14373;SDS011;7270;49.004;12.066;2023-07-13T07:21:13;1.50;;;1.40;;
14373;SDS011;7270;49.004;12.066;2023-07-13T07:26:08;1.70;;;1.60;;
14373;SDS011;7270;49.004;12.066;2023-07-13T07:28:35;1.90;;;1.80;;
14373;SDS011;7270;49.004;12.066;2023-07-13T07:31:01;2.10;;;2.00;;
14373;SDS011;7270;49.004;12.066;2023-07-13T07:33:28;2.20;;;2.10;;
14373;SDS011;7270;49.004;12.066;2023-07-13T07:35:54;502.13;;;437.87;;
14373;SDS011;7270;49.004;12.066;2023-07-13T07:38:22;3.03;;;2.93;;
14373;SDS011;7270;49.004;12.066;2023-07-13T07:40:48;1.97;;;1.87;;
14373;SDS011;7270;49.004;12.066;2023-07-13T07:43:14;1.90;;;1.80;;
14373;SDS011;7270;49.004;12.066;2023-07-13T07:45:41;2.50;;;2.40;;
14373;SDS011;7270;49.004;12.066;2023-07-13T07:48:07;4.27;;;4.07;;
14373;SDS011;7270;49.004;12.066;2023-07-13T07:50:35;2.50;;;2.40;;
14373;SDS011;7270;49.004;12.066;2023-07-13T07:53:01;5.93;;;5.63;;
14373;SDS011;7270;49.004;12.066;2023-07-13T07:55:29;2.10;;;2.00;;
14373;SDS011;7270;49.004;12.066;2023-07-13T07:57:56;540.23;;;469.57;;
14373;SDS011;7270;49.004;12.066;2023-07-13T08:00:22;6.17;;;5.87;;
14373;SDS011;7270;49.004;12.066;2023-07-13T08:02:48;7.60;;;7.27;;
14373;SDS011;7270;49.004;12.066;2023-07-13T08:05:15;3.23;;;3.13;;
14373;SDS011;7270;49.004;12.066;2023-07-13T08:07:41;2.17;;;2.07;;
14373;SDS011;7270;49.004;12.066;2023-07-13T08:10:08;3.37;;;3.20;;
14373;SDS011;7270;49.004;12.066;2023-07-13T08:12:36;618.20;;;558.67;;
14373;SDS011;7270;49.004;12.066;2023-07-13T08:15:03;655.57;;;590.77;;
14373;SDS011;7270;49.004;12.066;2023-07-13T08:17:29;654.73;;;590.13;;
14373;SDS011;7270;49.004;12.066;2023-07-13T08:19:56;686.73;;;621.00;;
14373;SDS011;7270;49.004;12.066;2023-07-13T08:22:22;682.60;;;617.20;;
14373;SDS011;7270;49.004;12.066;2023-07-13T08:24:49;700.33;;;634.47;;
14373;SDS011;7270;49.004;12.066;2023-07-13T08:27:21;699.30;;;633.93;;
14373;SDS011;7270;49.004;12.066;2023-07-13T08:29:48;670.20;;;605.80;;
14373;SDS011;7270;49.004;12.066;2023-07-13T08:32:15;713.17;;;647.43;;
14373;SDS011;7270;49.004;12.066;2023-07-13T08:34:41;259.85;;;248.10;;
14373;SDS011;7270;49.004;12.066;2023-07-13T08:37:08;108.10;;;103.30;;
14373;SDS011;7270;49.004;12.066;2023-07-13T08:39:34;79.45;;;75.88;;
14373;SDS011;7270;49.004;12.066;2023-07-13T08:42:02;74.22;;;70.85;;
14373;SDS011;7270;49.004;12.066;2023-07-13T08:44:33;11.02;;;10.52;;
14373;SDS011;7270;49.004;12.066;2023-07-13T08:47:04;22.08;;;21.05;;
14373;SDS011;7270;49.004;12.066;2023-07-13T08:49:30;82.28;;;78.65;;
14373;SDS011;7270;49.004;12.066;2023-07-13T08:51:59;394.25;;;373.23;;
14373;SDS011;7270;49.004;12.066;2023-07-13T08:54:27;338.33;;;322.13;;
14373;SDS011;7270;49.004;12.066;2023-07-13T08:56:54;602.33;;;562.00;;
14373;SDS011;7270;49.004;12.066;2023-07-13T08:59:24;622.22;;;580.72;;
14373;SDS011;7270;49.004;12.066;2023-07-13T09:02:00;662.13;;;614.00;;
14373;SDS011;7270;49.004;12.066;2023-07-13T09:04:34;373.87;;;354.67;;
14373;SDS011;7270;49.004;12.066;2023-07-13T09:07:04;326.13;;;309.63;;
14373;SDS011;7270;49.004;12.066;2023-07-13T09:09:35;316.03;;;299.40;;
14373;SDS011;7270;49.004;12.066;2023-07-13T09:12:07;433.73;;;406.37;;
14373;SDS011;7270;49.004;12.066;2023-07-13T09:14:40;396.10;;;372.20;;
14373;SDS011;7270;49.004;12.066;2023-07-13T09:17:10;513.60;;;474.93;;
14373;SDS011;7270;49.004;12.066;2023-07-13T09:19:39;399.33;;;375.70;;
14373;SDS011;7270;49.004;12.066;2023-07-13T09:22:08;408.37;;;384.03;;
14373;SDS011;7270;49.004;12.066;2023-07-13T09:24:36;398.67;;;371.67;;
14373;SDS011;7270;49.004;12.066;2023-07-13T09:27:03;286.00;;;269.20;;
14373;SDS011;7270;49.004;12.066;2023-07-13T09:29:35;617.87;;;554.43;;
14373;SDS011;7270;49.004;12.066;2023-07-13T09:32:06;36.17;;;33.67;;
14373;SDS011;7270;49.004;12.066;2023-07-13T09:34:33;209.00;;;198.53;;
14373;SDS011;7270;49.004;12.066;2023-07-13T09:37:01;579.03;;;528.93;;
14373;SDS011;7270;49.004;12.066;2023-07-13T09:39:32;649.57;;;585.30;;
14373;SDS011;7270;49.004;12.066;2023-07-13T09:42:01;633.63;;;580.27;;
14373;SDS011;7270;49.004;12.066;2023-07-13T09:44:33;694.80;;;629.23;;
14373;SDS011;7270;49.004;12.066;2023-07-13T09:47:00;708.23;;;642.13;;
14373;SDS011;7270;49.004;12.066;2023-07-13T09:49:29;697.70;;;632.17;;
14373;SDS011;7270;49.004;12.066;2023-07-13T09:51:57;724.47;;;658.40;;
14373;SDS011;7270;49.004;12.066;2023-07-13T09:54:25;744.20;;;677.23;;
14373;SDS011;7270;49.004;12.066;2023-07-13T09:56:54;742.53;;;675.80;;
14373;SDS011;7270;49.004;12.066;2023-07-13T09:59:21;728.93;;;662.40;;
14373;SDS011;7270;49.004;12.066;2023-07-13T10:01:49;724.80;;;658.50;;
14373;SDS011;7270;49.004;12.066;2023-07-13T10:04:16;738.17;;;671.40;;
14373;SDS011;7270;49.004;12.066;2023-07-13T10:06:43;748.87;;;682.13;;
14373;SDS011;7270;49.004;12.066;2023-07-13T10:09:13;716.88;;;656.33;;
14373;SDS011;7270;49.004;12.066;2023-07-13T10:11:42;726.90;;;660.90;;
14373;SDS011;7270;49.004;12.066;2023-07-13T10:14:10;751.60;;;684.73;;
14373;SDS011;7270;49.004;12.066;2023-07-13T10:16:37;715.90;;;649.93;;
14373;SDS011;7270;49.004;12.066;2023-07-13T10:19:05;737.77;;;671.30;;
14373;SDS011;7270;49.004;12.066;2023-07-13T10:21:34;731.70;;;665.27;;
14373;SDS011;7270;49.004;12.066;2023-07-13T10:24:03;722.47;;;656.47;;
14373;SDS011;7270;49.004;12.066;2023-07-13T10:26:31;708.03;;;642.57;;
14373;SDS011;7270;49.004;12.066;2023-07-13T10:29:01;718.17;;;652.27;;
14373;SDS011;7270;49.004;12.066;2023-07-13T10:31:29;713.57;;;647.80;;
14373;SDS011;7270;49.004;12.066;2023-07-13T10:33:56;730.43;;;664.20;;
14373;SDS011;7270;49.004;12.066;2023-07-13T10:36:27;713.33;;;647.67;;
14373;SDS011;7270;49.004;12.066;2023-07-13T10:38:55;693.97;;;628.80;;
14373;SDS011;7270;49.004;12.066;2023-07-13T10:41:24;431.70;;;407.40;;
14373;SDS011;7270;49.004;12.066;2023-07-13T10:43:52;11.33;;;10.83;;
14373;SDS011;7270;49.004;12.066;2023-07-13T10:46:20;12.87;;;12.27;;
14373;SDS011;7270;49.004;12.066;2023-07-13T10:48:48;652.80;;;588.37;;
14373;SDS011;7270;49.004;12.066;2023-07-13T10:51:16;605.93;;;542.83;;
14373;SDS011;7270;49.004;12.066;2023-07-13T10:53:46;627.57;;;563.57;;
14373;SDS011;7270;49.004;12.066;2023-07-13T10:56:19;618.17;;;554.57;;
14373;SDS011;7270;49.004;12.066;2023-07-13T10:58:50;616.20;;;552.70;;
14373;SDS011;7270;49.004;12.066;2023-07-13T11:01:28;567.93;;;505.63;;
14373;SDS011;7270;49.004;12.066;2023-07-13T11:04:05;568.87;;;506.47;;
14373;SDS011;7270;49.004;12.066;2023-07-13T11:06:36;421.47;;;381.53;;
14373;SDS011;7270;49.004;12.066;2023-07-13T11:09:17;557.90;;;491.87;;
14373;SDS011;7270;49.004;12.066;2023-07-13T11:11:44;556.10;;;485.43;;
14373;SDS011;7270;49.004;12.066;2023-07-13T11:14:27;608.83;;;545.17;;
14373;SDS011;7270;49.004;12.066;2023-07-13T11:16:55;529.53;;;478.40;;
14373;SDS011;7270;49.004;12.066;2023-07-13T11:19:37;619.70;;;556.07;;
14373;SDS011;7270;49.004;12.066;2023-07-13T11:22:15;628.70;;;564.67;;
14373;SDS011;7270;49.004;12.066;2023-07-13T11:24:49;601.80;;;543.33;;
14373;SDS011;7270;49.004;12.066;2023-07-13T11:27:21;308.00;;;290.50;;
14373;SDS011;7270;49.004;12.066;2023-07-13T11:29:48;358.53;;;338.00;;
14373;SDS011;7270;49.004;12.066;2023-07-13T11:32:25;550.93;;;511.90;;
14373;SDS011;7270;49.004;12.066;2023-07-13T11:34:52;670.90;;;606.17;;
14373;SDS011;7270;49.004;12.066;2023-07-13T11:37:19;17.70;;;16.88;;
14373;SDS011;7270;49.004;12.066;2023-07-13T11:39:46;423.63;;;387.43;;
14373;SDS011;7270;49.004;12.066;2023-07-13T11:42:13;692.80;;;627.80;;
14373;SDS011;7270;49.004;12.066;2023-07-13T11:44:42;677.23;;;612.77;;
14373;SDS011;7270;49.004;12.066;2023-07-13T11:47:09;688.53;;;623.63;;
14373;SDS011;7270;49.004;12.066;2023-07-13T11:49:40;698.43;;;633.33;;
14373;SDS011;7270;49.004;12.066;2023-07-13T11:52:09;703.80;;;638.17;;
14373;SDS011;7270;49.004;12.066;2023-07-13T11:54:43;683.03;;;618.53;;
14373;SDS011;7270;49.004;12.066;2023-07-13T11:57:19;696.03;;;630.97;;
14373;SDS011;7270;49.004;12.066;2023-07-13T11:59:49;715.50;;;649.70;;
14373;SDS011;7270;49.004;12.066;2023-07-13T12:02:17;743.15;;;676.75;;
14373;SDS011;7270;49.004;12.066;2023-07-13T12:04:47;734.97;;;668.67;;
14373;SDS011;7270;49.004;12.066;2023-07-13T12:07:14;709.67;;;644.37;;
14373;SDS011;7270;49.004;12.066;2023-07-13T12:09:42;734.97;;;668.90;;
14373;SDS011;7270;49.004;12.066;2023-07-13T12:12:12;723.73;;;658.00;;
14373;SDS011;7270;49.004;12.066;2023-07-13T12:14:38;670.83;;;618.00;;
14373;SDS011;7270;49.004;12.066;2023-07-13T12:17:08;505.00;;;473.98;;
14373;SDS011;7270;49.004;12.066;2023-07-13T12:19:35;196.00;;;187.18;;
14373;SDS011;7270;49.004;12.066;2023-07-13T12:22:03;129.13;;;123.30;;
14373;SDS011;7270;49.004;12.066;2023-07-13T12:24:29;90.53;;;86.50;;
14373;SDS011;7270;49.004;12.066;2023-07-13T12:26:58;43.70;;;41.70;;
14373;SDS011;7270;49.004;12.066;2023-07-13T12:29:25;12.57;;;11.90;;
14373;SDS011;7270;49.004;12.066;2023-07-13T12:31:52;420.13;;;382.80;;
14373;SDS011;7270;49.004;12.066;2023-07-13T12:34:19;663.20;;;598.80;;
14373;SDS011;7270;49.004;12.066;2023-07-13T12:36:46;663.80;;;599.03;;
14373;SDS011;7270;49.004;12.066;2023-07-13T12:39:15;671.87;;;607.13;;
14373;SDS011;7270;49.004;12.066;2023-07-13T12:41:42;662.23;;;597.57;;
14373;SDS011;7270;49.004;12.066;2023-07-13T12:44:11;686.20;;;621.40;;
14373;SDS011;7270;49.004;12.066;2023-07-13T12:46:38;678.80;;;616.97;;
14373;SDS011;7270;49.004;12.066;2023-07-13T12:49:05;652.90;;;588.53;;
14373;SDS011;7270;49.004;12.066;2023-07-13T12:51:32;656.03;;;591.33;;
14373;SDS011;7270;49.004;12.066;2023-07-13T12:54:05;660.03;;;595.40;;
14373;SDS011;7270;49.004;12.066;2023-07-13T12:56:33;650.87;;;586.50;;
14373;SDS011;7270;49.004;12.066;2023-07-13T12:59:00;535.13;;;485.43;;
14373;SDS011;7270;49.004;12.066;2023-07-13T13:01:27;625.87;;;561.87;;
14373;SDS011;7270;49.004;12.066;2023-07-13T13:03:54;616.50;;;552.57;;
14373;SDS011;7270;49.004;12.066;2023-07-13T13:06:22;636.63;;;572.03;;
14373;SDS011;7270;49.004;12.066;2023-07-13T13:08:50;634.70;;;570.17;;
14373;SDS011;7270;49.004;12.066;2023-07-13T13:11:16;630.63;;;566.17;;
14373;SDS011;7270;49.004;12.066;2023-07-13T13:13:44;612.97;;;549.17;;
14373;SDS011;7270;49.004;12.066;2023-07-13T13:16:12;80.93;;;76.63;;
14373;SDS011;7270;49.004;12.066;2023-07-13T13:18:40;603.13;;;539.50;;
14373;SDS011;7270;49.004;12.066;2023-07-13T13:21:08;616.60;;;552.47;;
14373;SDS011;7270;49.004;12.066;2023-07-13T13:23:34;567.30;;;504.73;;
14373;SDS011;7270;49.004;12.066;2023-07-13T13:26:00;585.23;;;522.03;;
14373;SDS011;7270;49.004;12.066;2023-07-13T13:28:27;592.07;;;528.57;;
14373;SDS011;7270;49.004;12.066;2023-07-13T13:30:55;564.90;;;502.00;;
14373;SDS011;7270;49.004;12.066;2023-07-13T13:33:21;584.83;;;521.37;;
14373;SDS011;7270;49.004;12.066;2023-07-13T13:35:48;585.20;;;521.80;;
14373;SDS011;7270;49.004;12.066;2023-07-13T13:38:15;558.50;;;478.70;;
14373;SDS011;7270;49.004;12.066;2023-07-13T13:40:42;554.63;;;461.80;;
14373;SDS011;7270;49.004;12.066;2023-07-13T13:43:15;299.80;;;269.13;;
14373;SDS011;7270;49.004;12.066;2023-07-13T13:45:42;10.27;;;9.73;;
14373;SDS011;7270;49.004;12.066;2023-07-13T13:48:14;6.53;;;6.13;;
14373;SDS011;7270;49.004;12.066;2023-07-13T13:50:40;2.90;;;2.70;;
14373;SDS011;7270;49.004;12.066;2023-07-13T13:53:08;3.23;;;3.03;;
14373;SDS011;7270;49.004;12.066;2023-07-13T13:55:35;3.70;;;3.50;;
14373;SDS011;7270;49.004;12.066;2023-07-13T13:58:01;3.20;;;3.10;;
14373;SDS011;7270;49.004;12.066;2023-07-13T14:00:28;3.00;;;2.90;;
14373;SDS011;7270;49.004;12.066;2023-07-13T14:02:55;2.70;;;2.60;;
14373;SDS011;7270;49.004;12.066;2023-07-13T14:05:24;2.40;;;2.30;;
14373;SDS011;7270;49.004;12.066;2023-07-13T14:07:51;2.60;;;2.50;;
14373;SDS011;7270;49.004;12.066;2023-07-13T14:10:18;2.30;;;2.20;;
14373;SDS011;7270;49.004;12.066;2023-07-13T14:12:45;2.50;;;2.40;;
14373;SDS011;7270;49.004;12.066;2023-07-13T14:15:13;2.40;;;2.30;;
14373;SDS011;7270;49.004;12.066;2023-07-13T14:17:43;2.20;;;2.10;;
14373;SDS011;7270;49.004;12.066;2023-07-13T14:20:10;2.40;;;2.30;;
14373;SDS011;7270;49.004;12.066;2023-07-13T14:22:39;2.30;;;2.20;;
14373;SDS011;7270;49.004;12.066;2023-07-13T14:25:05;2.40;;;2.30;;
14373;SDS011;7270;49.004;12.066;2023-07-13T14:27:32;2.80;;;2.70;;
14373;SDS011;7270;49.004;12.066;2023-07-13T14:29:58;2.67;;;2.57;;
14373;SDS011;7270;49.004;12.066;2023-07-13T14:32:24;2.70;;;2.60;;